sensor_id;sensor_type;location;lat;lon;timestamp;P1;durP1;ratioP1;P2;durP2;ratioP2
39896;SDS011;25567;48.276;14.242;2022-12-05T00:00:34;20.42;;;8.88;;
39896;SDS011;25567;48.276;14.242;2022-12-05T00:03:03;19.10;;;8.00;;
39896;SDS011;25567;48.276;14.242;2022-12-05T00:05:30;19.30;;;8.25;;
39896;SDS011;25567;48.276;14.242;2022-12-05T00:07:57;21.15;;;9.82;;
39896;SDS011;25567;48.276;14.242;2022-12-05T00:10:24;19.90;;;9.35;;
39896;SDS011;25567;48.276;14.242;2022-12-05T00:12:50;22.63;;;9.30;;
39896;SDS011;25567;48.276;14.242;2022-12-05T00:15:17;19.67;;;8.75;;
39896;SDS011;25567;48.276;14.242;2022-12-05T00:17:44;20.40;;;9.60;;
39896;SDS011;25567;48.276;14.242;2022-12-05T00:20:11;22.13;;;8.40;;
39896;SDS011;25567;48.276;14.242;2022-12-05T00:22:37;19.17;;;8.25;;
39896;SDS011;25567;48.276;14.242;2022-12-05T00:25:06;17.25;;;8.45;;
39896;SDS011;25567;48.276;14.242;2022-12-05T00:27:33;22.02;;;9.50;;
39896;SDS011;25567;48.276;14.242;2022-12-05T00:30:00;21.52;;;9.43;;
39896;SDS011;25567;48.276;14.242;2022-12-05T00:32:28;19.30;;;8.23;;
39896;SDS011;25567;48.276;14.242;2022-12-05T00:34:56;18.23;;;8.07;;
39896;SDS011;25567;48.276;14.242;2022-12-05T00:37:23;19.02;;;8.18;;
39896;SDS011;25567;48.276;14.242;2022-12-05T00:39:50;16.73;;;7.53;;
39896;SDS011;25567;48.276;14.242;2022-12-05T00:42:16;15.77;;;7.38;;
39896;SDS011;25567;48.276;14.242;2022-12-05T00:44:43;17.30;;;7.32;;
39896;SDS011;25567;48.276;14.242;2022-12-05T00:47:10;15.13;;;7.30;;
39896;SDS011;25567;48.276;14.242;2022-12-05T00:49:36;20.05;;;7.88;;
39896;SDS011;25567;48.276;14.242;2022-12-05T00:52:03;18.00;;;8.00;;
39896;SDS011;25567;48.276;14.242;2022-12-05T00:54:30;16.00;;;7.55;;
39896;SDS011;25567;48.276;14.242;2022-12-05T00:56:56;20.33;;;8.45;;
39896;SDS011;25567;48.276;14.242;2022-12-05T00:59:23;23.08;;;9.60;;
39896;SDS011;25567;48.276;14.242;2022-12-05T01:01:50;22.60;;;8.65;;
39896;SDS011;25567;48.276;14.242;2022-12-05T01:04:18;20.92;;;9.00;;
39896;SDS011;25567;48.276;14.242;2022-12-05T01:06:48;20.52;;;8.55;;
39896;SDS011;25567;48.276;14.242;2022-12-05T01:09:18;17.63;;;7.90;;
39896;SDS011;25567;48.276;14.242;2022-12-05T01:11:46;23.23;;;8.80;;
39896;SDS011;25567;48.276;14.242;2022-12-05T01:14:14;20.05;;;8.68;;
39896;SDS011;25567;48.276;14.242;2022-12-05T01:16:44;20.05;;;8.32;;
39896;SDS011;25567;48.276;14.242;2022-12-05T01:19:13;19.42;;;8.45;;
39896;SDS011;25567;48.276;14.242;2022-12-05T01:21:41;18.63;;;8.40;;
39896;SDS011;25567;48.276;14.242;2022-12-05T01:24:09;18.30;;;7.93;;
39896;SDS011;25567;48.276;14.242;2022-12-05T01:26:37;22.00;;;8.45;;
39896;SDS011;25567;48.276;14.242;2022-12-05T01:29:05;21.02;;;8.80;;
39896;SDS011;25567;48.276;14.242;2022-12-05T01:31:33;20.25;;;9.20;;
39896;SDS011;25567;48.276;14.242;2022-12-05T01:34:02;17.90;;;8.60;;
39896;SDS011;25567;48.276;14.242;2022-12-05T01:36:31;16.77;;;8.05;;
39896;SDS011;25567;48.276;14.242;2022-12-05T01:38:58;21.23;;;9.05;;
39896;SDS011;25567;48.276;14.242;2022-12-05T01:41:27;21.67;;;8.05;;
39896;SDS011;25567;48.276;14.242;2022-12-05T01:43:57;17.90;;;8.23;;
39896;SDS011;25567;48.276;14.242;2022-12-05T01:46:44;18.55;;;8.57;;
39896;SDS011;25567;48.276;14.242;2022-12-05T01:49:15;26.75;;;8.77;;
39896;SDS011;25567;48.276;14.242;2022-12-05T01:51:46;20.92;;;9.63;;
39896;SDS011;25567;48.276;14.242;2022-12-05T01:54:16;19.67;;;8.98;;
39896;SDS011;25567;48.276;14.242;2022-12-05T01:56:47;20.00;;;8.35;;
39896;SDS011;25567;48.276;14.242;2022-12-05T01:59:18;19.48;;;8.27;;
39896;SDS011;25567;48.276;14.242;2022-12-05T02:01:48;19.70;;;8.05;;
39896;SDS011;25567;48.276;14.242;2022-12-05T02:04:14;24.73;;;10.13;;
39896;SDS011;25567;48.276;14.242;2022-12-05T02:06:41;21.25;;;8.02;;
39896;SDS011;25567;48.276;14.242;2022-12-05T02:09:08;22.90;;;8.43;;
39896;SDS011;25567;48.276;14.242;2022-12-05T02:11:35;20.08;;;8.68;;
39896;SDS011;25567;48.276;14.242;2022-12-05T02:14:16;20.83;;;9.07;;
39896;SDS011;25567;48.276;14.242;2022-12-05T02:31:07;26.23;;;10.93;;
39896;SDS011;25567;48.276;14.242;2022-12-05T02:33:47;28.00;;;11.43;;
39896;SDS011;25567;48.276;14.242;2022-12-05T02:38:52;23.25;;;10.60;;
39896;SDS011;25567;48.276;14.242;2022-12-05T02:41:35;27.80;;;11.00;;
39896;SDS011;25567;48.276;14.242;2022-12-05T02:44:09;26.88;;;11.38;;
39896;SDS011;25567;48.276;14.242;2022-12-05T02:46:41;30.33;;;10.63;;
39896;SDS011;25567;48.276;14.242;2022-12-05T02:49:12;26.85;;;11.00;;
39896;SDS011;25567;48.276;14.242;2022-12-05T02:51:45;25.98;;;9.95;;
39896;SDS011;25567;48.276;14.242;2022-12-05T02:54:17;27.77;;;11.65;;
39896;SDS011;25567;48.276;14.242;2022-12-05T02:56:46;22.75;;;10.75;;
39896;SDS011;25567;48.276;14.242;2022-12-05T02:59:14;26.30;;;11.30;;
39896;SDS011;25567;48.276;14.242;2022-12-05T03:01:48;23.23;;;10.77;;
39896;SDS011;25567;48.276;14.242;2022-12-05T03:04:15;25.95;;;11.02;;
39896;SDS011;25567;48.276;14.242;2022-12-05T03:06:48;30.13;;;12.43;;
39896;SDS011;25567;48.276;14.242;2022-12-05T03:09:21;26.83;;;11.55;;
39896;SDS011;25567;48.276;14.242;2022-12-05T03:12:08;26.52;;;11.43;;
39896;SDS011;25567;48.276;14.242;2022-12-05T03:14:41;31.98;;;12.27;;
39896;SDS011;25567;48.276;14.242;2022-12-05T03:17:14;33.67;;;13.27;;
39896;SDS011;25567;48.276;14.242;2022-12-05T03:22:29;28.65;;;11.70;;
39896;SDS011;25567;48.276;14.242;2022-12-05T03:24:58;28.50;;;12.60;;
39896;SDS011;25567;48.276;14.242;2022-12-05T03:30:03;26.80;;;12.30;;
39896;SDS011;25567;48.276;14.242;2022-12-05T03:35:19;32.70;;;13.45;;
39896;SDS011;25567;48.276;14.242;2022-12-05T03:40:33;38.40;;;15.68;;
39896;SDS011;25567;48.276;14.242;2022-12-05T03:43:08;40.78;;;17.05;;
39896;SDS011;25567;48.276;14.242;2022-12-05T03:45:42;41.22;;;17.20;;
39896;SDS011;25567;48.276;14.242;2022-12-05T03:48:18;44.88;;;18.27;;
39896;SDS011;25567;48.276;14.242;2022-12-05T03:50:52;43.28;;;17.40;;
39896;SDS011;25567;48.276;14.242;2022-12-05T03:53:24;42.63;;;16.48;;
39896;SDS011;25567;48.276;14.242;2022-12-05T03:55:56;37.35;;;17.25;;
39896;SDS011;25567;48.276;14.242;2022-12-05T03:58:38;38.20;;;15.88;;
39896;SDS011;25567;48.276;14.242;2022-12-05T04:01:12;34.85;;;16.52;;
39896;SDS011;25567;48.276;14.242;2022-12-05T04:03:44;37.38;;;16.25;;
39896;SDS011;25567;48.276;14.242;2022-12-05T04:08:51;36.50;;;15.63;;
39896;SDS011;25567;48.276;14.242;2022-12-05T04:11:24;35.38;;;16.33;;
39896;SDS011;25567;48.276;14.242;2022-12-05T04:16:42;66.22;;;17.23;;
39896;SDS011;25567;48.276;14.242;2022-12-05T04:19:39;36.50;;;16.08;;
39896;SDS011;25567;48.276;14.242;2022-12-05T04:22:27;39.90;;;16.55;;
39896;SDS011;25567;48.276;14.242;2022-12-05T04:24:55;36.40;;;16.67;;
39896;SDS011;25567;48.276;14.242;2022-12-05T04:30:30;31.95;;;15.32;;
39896;SDS011;25567;48.276;14.242;2022-12-05T04:33:07;36.63;;;16.25;;
39896;SDS011;25567;48.276;14.242;2022-12-05T04:35:42;31.00;;;13.90;;
39896;SDS011;25567;48.276;14.242;2022-12-05T04:41:02;32.47;;;14.70;;
39896;SDS011;25567;48.276;14.242;2022-12-05T04:43:33;33.53;;;13.68;;
39896;SDS011;25567;48.276;14.242;2022-12-05T04:46:02;34.42;;;14.68;;
39896;SDS011;25567;48.276;14.242;2022-12-05T04:48:33;36.75;;;15.18;;
39896;SDS011;25567;48.276;14.242;2022-12-05T04:51:05;36.72;;;15.98;;
39896;SDS011;25567;48.276;14.242;2022-12-05T04:53:37;33.45;;;13.98;;
39896;SDS011;25567;48.276;14.242;2022-12-05T04:56:06;30.63;;;12.95;;
39896;SDS011;25567;48.276;14.242;2022-12-05T04:58:35;33.40;;;13.10;;
39896;SDS011;25567;48.276;14.242;2022-12-05T05:03:30;25.90;;;11.55;;
39896;SDS011;25567;48.276;14.242;2022-12-05T05:06:03;28.63;;;12.65;;
39896;SDS011;25567;48.276;14.242;2022-12-05T05:08:30;28.17;;;12.77;;
39896;SDS011;25567;48.276;14.242;2022-12-05T05:11:06;27.95;;;12.05;;
39896;SDS011;25567;48.276;14.242;2022-12-05T05:13:38;28.23;;;12.73;;
39896;SDS011;25567;48.276;14.242;2022-12-05T05:16:05;26.35;;;12.05;;
39896;SDS011;25567;48.276;14.242;2022-12-05T05:18:33;27.75;;;12.90;;
39896;SDS011;25567;48.276;14.242;2022-12-05T05:20:59;26.52;;;12.00;;
39896;SDS011;25567;48.276;14.242;2022-12-05T05:23:26;33.03;;;13.43;;
39896;SDS011;25567;48.276;14.242;2022-12-05T05:25:53;28.35;;;13.02;;
39896;SDS011;25567;48.276;14.242;2022-12-05T05:28:23;32.25;;;13.45;;
39896;SDS011;25567;48.276;14.242;2022-12-05T05:30:49;28.38;;;13.07;;
39896;SDS011;25567;48.276;14.242;2022-12-05T05:33:16;31.73;;;14.63;;
39896;SDS011;25567;48.276;14.242;2022-12-05T05:35:43;33.45;;;13.55;;
39896;SDS011;25567;48.276;14.242;2022-12-05T05:38:12;33.10;;;14.52;;
39896;SDS011;25567;48.276;14.242;2022-12-05T05:40:38;34.50;;;14.82;;
39896;SDS011;25567;48.276;14.242;2022-12-05T05:43:05;28.55;;;13.55;;
39896;SDS011;25567;48.276;14.242;2022-12-05T05:45:32;31.10;;;13.98;;
39896;SDS011;25567;48.276;14.242;2022-12-05T05:47:58;29.88;;;13.60;;
39896;SDS011;25567;48.276;14.242;2022-12-05T05:50:25;29.23;;;13.43;;
39896;SDS011;25567;48.276;14.242;2022-12-05T05:52:52;29.38;;;12.45;;
39896;SDS011;25567;48.276;14.242;2022-12-05T05:55:18;27.80;;;12.35;;
39896;SDS011;25567;48.276;14.242;2022-12-05T05:57:45;29.17;;;13.23;;
39896;SDS011;25567;48.276;14.242;2022-12-05T06:00:13;31.85;;;12.57;;
39896;SDS011;25567;48.276;14.242;2022-12-05T06:02:40;29.40;;;11.98;;
39896;SDS011;25567;48.276;14.242;2022-12-05T06:05:08;26.85;;;11.90;;
39896;SDS011;25567;48.276;14.242;2022-12-05T06:07:35;28.70;;;12.48;;
39896;SDS011;25567;48.276;14.242;2022-12-05T06:10:02;28.42;;;12.35;;
39896;SDS011;25567;48.276;14.242;2022-12-05T06:12:29;29.27;;;11.90;;
39896;SDS011;25567;48.276;14.242;2022-12-05T06:14:56;30.77;;;12.88;;
39896;SDS011;25567;48.276;14.242;2022-12-05T06:17:22;30.08;;;12.07;;
39896;SDS011;25567;48.276;14.242;2022-12-05T06:19:52;29.45;;;11.93;;
39896;SDS011;25567;48.276;14.242;2022-12-05T06:22:19;28.45;;;12.05;;
39896;SDS011;25567;48.276;14.242;2022-12-05T06:24:46;27.50;;;13.18;;
39896;SDS011;25567;48.276;14.242;2022-12-05T06:27:12;29.88;;;13.18;;
39896;SDS011;25567;48.276;14.242;2022-12-05T06:29:39;30.92;;;12.95;;
39896;SDS011;25567;48.276;14.242;2022-12-05T06:32:06;30.05;;;13.13;;
39896;SDS011;25567;48.276;14.242;2022-12-05T06:34:36;27.98;;;12.95;;
39896;SDS011;25567;48.276;14.242;2022-12-05T06:37:03;32.38;;;12.77;;
39896;SDS011;25567;48.276;14.242;2022-12-05T06:39:29;29.45;;;12.30;;
39896;SDS011;25567;48.276;14.242;2022-12-05T06:41:56;30.58;;;12.30;;
39896;SDS011;25567;48.276;14.242;2022-12-05T06:44:23;25.60;;;11.57;;
39896;SDS011;25567;48.276;14.242;2022-12-05T06:46:52;31.60;;;12.90;;
39896;SDS011;25567;48.276;14.242;2022-12-05T06:49:20;31.77;;;13.43;;
39896;SDS011;25567;48.276;14.242;2022-12-05T06:51:55;33.03;;;13.77;;
39896;SDS011;25567;48.276;14.242;2022-12-05T06:54:22;32.67;;;13.25;;
39896;SDS011;25567;48.276;14.242;2022-12-05T06:56:49;35.50;;;13.80;;
39896;SDS011;25567;48.276;14.242;2022-12-05T06:59:16;37.60;;;13.55;;
39896;SDS011;25567;48.276;14.242;2022-12-05T07:01:42;36.10;;;14.65;;
39896;SDS011;25567;48.276;14.242;2022-12-05T07:04:15;32.58;;;13.98;;
39896;SDS011;25567;48.276;14.242;2022-12-05T07:06:46;33.13;;;14.43;;
39896;SDS011;25567;48.276;14.242;2022-12-05T07:09:17;39.78;;;14.23;;
39896;SDS011;25567;48.276;14.242;2022-12-05T07:11:46;37.55;;;13.80;;
39896;SDS011;25567;48.276;14.242;2022-12-05T07:14:15;37.47;;;14.48;;
39896;SDS011;25567;48.276;14.242;2022-12-05T07:17:03;34.08;;;14.02;;
39896;SDS011;25567;48.276;14.242;2022-12-05T07:19:30;39.35;;;13.88;;
39896;SDS011;25567;48.276;14.242;2022-12-05T07:21:57;37.40;;;14.88;;
39896;SDS011;25567;48.276;14.242;2022-12-05T07:24:24;41.20;;;15.88;;
39896;SDS011;25567;48.276;14.242;2022-12-05T07:26:52;44.22;;;15.27;;
39896;SDS011;25567;48.276;14.242;2022-12-05T07:29:19;46.75;;;14.80;;
39896;SDS011;25567;48.276;14.242;2022-12-05T07:31:45;44.15;;;15.25;;
39896;SDS011;25567;48.276;14.242;2022-12-05T07:34:12;42.33;;;15.63;;
39896;SDS011;25567;48.276;14.242;2022-12-05T07:36:39;39.50;;;15.15;;
39896;SDS011;25567;48.276;14.242;2022-12-05T07:39:05;43.83;;;15.23;;
39896;SDS011;25567;48.276;14.242;2022-12-05T07:41:32;41.75;;;16.45;;
39896;SDS011;25567;48.276;14.242;2022-12-05T07:44:00;37.97;;;15.45;;
39896;SDS011;25567;48.276;14.242;2022-12-05T07:46:27;39.20;;;15.65;;
39896;SDS011;25567;48.276;14.242;2022-12-05T07:48:55;40.97;;;14.82;;
39896;SDS011;25567;48.276;14.242;2022-12-05T07:51:22;45.58;;;16.08;;
39896;SDS011;25567;48.276;14.242;2022-12-05T07:53:49;44.05;;;16.92;;
39896;SDS011;25567;48.276;14.242;2022-12-05T07:56:16;39.70;;;15.10;;
39896;SDS011;25567;48.276;14.242;2022-12-05T07:58:44;42.22;;;16.13;;
39896;SDS011;25567;48.276;14.242;2022-12-05T08:01:14;37.75;;;14.80;;
39896;SDS011;25567;48.276;14.242;2022-12-05T08:03:43;35.72;;;14.85;;
39896;SDS011;25567;48.276;14.242;2022-12-05T08:06:11;35.50;;;14.63;;
39896;SDS011;25567;48.276;14.242;2022-12-05T08:08:40;35.08;;;15.35;;
39896;SDS011;25567;48.276;14.242;2022-12-05T08:11:09;30.42;;;13.90;;
39896;SDS011;25567;48.276;14.242;2022-12-05T08:13:36;37.45;;;14.35;;
39896;SDS011;25567;48.276;14.242;2022-12-05T08:16:04;35.67;;;15.43;;
39896;SDS011;25567;48.276;14.242;2022-12-05T08:18:33;39.35;;;15.55;;
39896;SDS011;25567;48.276;14.242;2022-12-05T08:21:01;41.10;;;15.63;;
39896;SDS011;25567;48.276;14.242;2022-12-05T08:23:29;35.75;;;16.02;;
39896;SDS011;25567;48.276;14.242;2022-12-05T08:26:01;34.13;;;16.00;;
39896;SDS011;25567;48.276;14.242;2022-12-05T08:28:29;32.10;;;15.55;;
39896;SDS011;25567;48.276;14.242;2022-12-05T08:31:01;41.22;;;16.38;;
39896;SDS011;25567;48.276;14.242;2022-12-05T08:33:30;38.92;;;16.15;;
39896;SDS011;25567;48.276;14.242;2022-12-05T08:35:58;38.75;;;17.17;;
39896;SDS011;25567;48.276;14.242;2022-12-05T08:38:26;42.83;;;17.67;;
39896;SDS011;25567;48.276;14.242;2022-12-05T08:40:53;37.38;;;16.33;;
39896;SDS011;25567;48.276;14.242;2022-12-05T08:43:20;42.42;;;17.40;;
39896;SDS011;25567;48.276;14.242;2022-12-05T08:45:48;47.70;;;18.77;;
39896;SDS011;25567;48.276;14.242;2022-12-05T08:48:16;39.65;;;17.23;;
39896;SDS011;25567;48.276;14.242;2022-12-05T08:50:43;45.85;;;18.60;;
39896;SDS011;25567;48.276;14.242;2022-12-05T08:53:10;38.13;;;16.60;;
39896;SDS011;25567;48.276;14.242;2022-12-05T08:55:37;41.55;;;15.48;;
39896;SDS011;25567;48.276;14.242;2022-12-05T08:58:04;46.15;;;18.40;;
39896;SDS011;25567;48.276;14.242;2022-12-05T09:00:31;46.78;;;17.42;;
39896;SDS011;25567;48.276;14.242;2022-12-05T09:02:58;44.40;;;17.85;;
39896;SDS011;25567;48.276;14.242;2022-12-05T09:05:25;47.63;;;18.90;;
39896;SDS011;25567;48.276;14.242;2022-12-05T09:07:54;47.47;;;19.13;;
39896;SDS011;25567;48.276;14.242;2022-12-05T09:10:21;50.33;;;19.50;;
39896;SDS011;25567;48.276;14.242;2022-12-05T09:12:48;46.60;;;19.05;;
39896;SDS011;25567;48.276;14.242;2022-12-05T09:15:16;52.15;;;19.98;;
39896;SDS011;25567;48.276;14.242;2022-12-05T09:17:43;48.40;;;18.80;;
39896;SDS011;25567;48.276;14.242;2022-12-05T09:20:10;47.10;;;18.63;;
39896;SDS011;25567;48.276;14.242;2022-12-05T09:22:39;48.88;;;18.00;;
39896;SDS011;25567;48.276;14.242;2022-12-05T09:25:06;46.53;;;18.63;;
39896;SDS011;25567;48.276;14.242;2022-12-05T09:27:34;48.30;;;18.73;;
39896;SDS011;25567;48.276;14.242;2022-12-05T09:30:00;46.83;;;19.08;;
39896;SDS011;25567;48.276;14.242;2022-12-05T09:32:28;56.50;;;19.25;;
39896;SDS011;25567;48.276;14.242;2022-12-05T09:34:55;43.17;;;19.33;;
39896;SDS011;25567;48.276;14.242;2022-12-05T09:37:22;41.83;;;18.75;;
39896;SDS011;25567;48.276;14.242;2022-12-05T09:40:04;39.20;;;17.48;;
39896;SDS011;25567;48.276;14.242;2022-12-05T09:42:37;44.90;;;18.73;;
39896;SDS011;25567;48.276;14.242;2022-12-05T09:47:48;43.85;;;19.33;;
39896;SDS011;25567;48.276;14.242;2022-12-05T09:53:13;44.85;;;17.60;;
39896;SDS011;25567;48.276;14.242;2022-12-05T09:55:48;44.15;;;16.73;;
39896;SDS011;25567;48.276;14.242;2022-12-05T09:58:20;49.60;;;18.00;;
39896;SDS011;25567;48.276;14.242;2022-12-05T10:01:09;47.53;;;17.48;;
39896;SDS011;25567;48.276;14.242;2022-12-05T10:09:18;45.25;;;17.70;;
39896;SDS011;25567;48.276;14.242;2022-12-05T10:11:56;50.42;;;17.67;;
39896;SDS011;25567;48.276;14.242;2022-12-05T10:14:47;43.25;;;16.88;;
39896;SDS011;25567;48.276;14.242;2022-12-05T10:20:08;38.22;;;14.77;;
39896;SDS011;25567;48.276;14.242;2022-12-05T10:25:22;38.03;;;14.18;;
39896;SDS011;25567;48.276;14.242;2022-12-05T10:27:55;38.90;;;14.32;;
39896;SDS011;25567;48.276;14.242;2022-12-05T10:30:27;41.35;;;14.07;;
39896;SDS011;25567;48.276;14.242;2022-12-05T10:35:25;35.85;;;13.05;;
39896;SDS011;25567;48.276;14.242;2022-12-05T10:37:57;40.30;;;13.43;;
39896;SDS011;25567;48.276;14.242;2022-12-05T10:40:36;32.65;;;12.35;;
39896;SDS011;25567;48.276;14.242;2022-12-05T10:43:06;34.85;;;12.07;;
39896;SDS011;25567;48.276;14.242;2022-12-05T10:45:38;36.30;;;13.25;;
39896;SDS011;25567;48.276;14.242;2022-12-05T10:48:08;31.83;;;13.35;;
39896;SDS011;25567;48.276;14.242;2022-12-05T10:50:38;33.38;;;11.65;;
39896;SDS011;25567;48.276;14.242;2022-12-05T10:53:07;43.72;;;13.27;;
39896;SDS011;25567;48.276;14.242;2022-12-05T10:55:41;32.38;;;12.10;;
39896;SDS011;25567;48.276;14.242;2022-12-05T10:58:30;39.70;;;12.05;;
39896;SDS011;25567;48.276;14.242;2022-12-05T11:00:58;38.28;;;13.15;;
39896;SDS011;25567;48.276;14.242;2022-12-05T11:08:53;41.70;;;12.20;;
39896;SDS011;25567;48.276;14.242;2022-12-05T11:11:31;38.45;;;13.48;;
39896;SDS011;25567;48.276;14.242;2022-12-05T11:14:00;35.60;;;13.10;;
39896;SDS011;25567;48.276;14.242;2022-12-05T11:16:30;37.85;;;13.45;;
39896;SDS011;25567;48.276;14.242;2022-12-05T11:21:58;36.25;;;12.82;;
39896;SDS011;25567;48.276;14.242;2022-12-05T11:24:26;33.00;;;11.52;;
39896;SDS011;25567;48.276;14.242;2022-12-05T11:26:57;36.50;;;12.27;;
39896;SDS011;25567;48.276;14.242;2022-12-05T11:29:31;33.85;;;11.82;;
39896;SDS011;25567;48.276;14.242;2022-12-05T11:32:03;31.73;;;11.63;;
39896;SDS011;25567;48.276;14.242;2022-12-05T11:34:37;33.88;;;11.48;;
39896;SDS011;25567;48.276;14.242;2022-12-05T11:37:10;30.23;;;10.43;;
39896;SDS011;25567;48.276;14.242;2022-12-05T11:39:40;22.23;;;9.25;;
39896;SDS011;25567;48.276;14.242;2022-12-05T11:42:10;26.48;;;10.48;;
39896;SDS011;25567;48.276;14.242;2022-12-05T11:47:36;27.52;;;9.98;;
39896;SDS011;25567;48.276;14.242;2022-12-05T11:50:10;32.22;;;10.70;;
39896;SDS011;25567;48.276;14.242;2022-12-05T11:55:41;25.17;;;10.15;;
39896;SDS011;25567;48.276;14.242;2022-12-05T11:58:16;28.40;;;10.50;;
39896;SDS011;25567;48.276;14.242;2022-12-05T12:04:14;26.52;;;9.52;;
39896;SDS011;25567;48.276;14.242;2022-12-05T12:12:45;28.15;;;9.93;;
39896;SDS011;25567;48.276;14.242;2022-12-05T12:18:06;20.45;;;8.73;;
39896;SDS011;25567;48.276;14.242;2022-12-05T12:28:45;21.88;;;8.77;;
39896;SDS011;25567;48.276;14.242;2022-12-05T12:34:28;26.60;;;10.30;;
39896;SDS011;25567;48.276;14.242;2022-12-05T12:42:43;26.48;;;9.65;;
39896;SDS011;25567;48.276;14.242;2022-12-05T12:45:26;26.60;;;10.20;;
39896;SDS011;25567;48.276;14.242;2022-12-05T12:48:16;24.92;;;9.77;;
39896;SDS011;25567;48.276;14.242;2022-12-05T12:50:52;26.58;;;10.18;;
39896;SDS011;25567;48.276;14.242;2022-12-05T12:53:38;27.20;;;10.07;;
39896;SDS011;25567;48.276;14.242;2022-12-05T12:58:53;27.25;;;10.13;;
39896;SDS011;25567;48.276;14.242;2022-12-05T13:04:01;30.45;;;10.60;;
39896;SDS011;25567;48.276;14.242;2022-12-05T13:06:43;23.88;;;8.68;;
39896;SDS011;25567;48.276;14.242;2022-12-05T13:11:51;28.15;;;9.65;;
39896;SDS011;25567;48.276;14.242;2022-12-05T13:14:20;22.88;;;9.70;;
39896;SDS011;25567;48.276;14.242;2022-12-05T13:16:51;25.58;;;9.63;;
39896;SDS011;25567;48.276;14.242;2022-12-05T13:19:26;25.38;;;9.02;;
39896;SDS011;25567;48.276;14.242;2022-12-05T13:22:03;24.25;;;9.60;;
39896;SDS011;25567;48.276;14.242;2022-12-05T13:24:31;28.75;;;10.48;;
39896;SDS011;25567;48.276;14.242;2022-12-05T13:26:59;23.55;;;9.40;;
39896;SDS011;25567;48.276;14.242;2022-12-05T13:29:31;26.35;;;10.85;;
39896;SDS011;25567;48.276;14.242;2022-12-05T13:32:02;22.88;;;9.00;;
39896;SDS011;25567;48.276;14.242;2022-12-05T13:37:00;23.33;;;9.50;;
39896;SDS011;25567;48.276;14.242;2022-12-05T13:39:52;25.75;;;9.82;;
39896;SDS011;25567;48.276;14.242;2022-12-05T13:42:37;33.13;;;9.50;;
39896;SDS011;25567;48.276;14.242;2022-12-05T13:47:31;22.65;;;8.80;;
39896;SDS011;25567;48.276;14.242;2022-12-05T13:52:58;23.75;;;9.68;;
39896;SDS011;25567;48.276;14.242;2022-12-05T13:55:31;27.17;;;9.25;;
39896;SDS011;25567;48.276;14.242;2022-12-05T13:58:03;25.73;;;9.63;;
39896;SDS011;25567;48.276;14.242;2022-12-05T14:00:49;26.67;;;9.40;;
39896;SDS011;25567;48.276;14.242;2022-12-05T14:05:49;26.85;;;8.88;;
39896;SDS011;25567;48.276;14.242;2022-12-05T14:11:14;21.85;;;9.00;;
39896;SDS011;25567;48.276;14.242;2022-12-05T14:13:42;24.17;;;9.60;;
39896;SDS011;25567;48.276;14.242;2022-12-05T14:22:07;27.55;;;9.65;;
39896;SDS011;25567;48.276;14.242;2022-12-05T14:30:16;29.48;;;8.90;;
39896;SDS011;25567;48.276;14.242;2022-12-05T14:32:47;23.92;;;8.30;;
39896;SDS011;25567;48.276;14.242;2022-12-05T14:35:24;20.63;;;8.15;;
39896;SDS011;25567;48.276;14.242;2022-12-05T14:38:00;22.60;;;8.32;;
39896;SDS011;25567;48.276;14.242;2022-12-05T14:40:33;22.15;;;8.43;;
39896;SDS011;25567;48.276;14.242;2022-12-05T14:43:03;23.90;;;9.23;;
39896;SDS011;25567;48.276;14.242;2022-12-05T14:45:32;25.05;;;9.98;;
39896;SDS011;25567;48.276;14.242;2022-12-05T14:50:42;29.05;;;10.25;;
39896;SDS011;25567;48.276;14.242;2022-12-05T14:55:42;25.73;;;10.02;;
39896;SDS011;25567;48.276;14.242;2022-12-05T14:58:15;24.40;;;9.80;;
39896;SDS011;25567;48.276;14.242;2022-12-05T15:00:45;24.83;;;8.80;;
39896;SDS011;25567;48.276;14.242;2022-12-05T15:03:24;22.08;;;7.90;;
39896;SDS011;25567;48.276;14.242;2022-12-05T15:05:56;19.30;;;7.43;;
39896;SDS011;25567;48.276;14.242;2022-12-05T15:08:29;18.00;;;7.25;;
39896;SDS011;25567;48.276;14.242;2022-12-05T15:11:04;27.33;;;8.13;;
39896;SDS011;25567;48.276;14.242;2022-12-05T15:13:31;23.20;;;8.45;;
39896;SDS011;25567;48.276;14.242;2022-12-05T15:16:00;22.55;;;8.20;;
39896;SDS011;25567;48.276;14.242;2022-12-05T15:23:57;20.08;;;7.60;;
39896;SDS011;25567;48.276;14.242;2022-12-05T15:31:49;20.33;;;8.00;;
39896;SDS011;25567;48.276;14.242;2022-12-05T15:34:35;21.08;;;7.40;;
39896;SDS011;25567;48.276;14.242;2022-12-05T15:42:22;20.95;;;8.20;;
39896;SDS011;25567;48.276;14.242;2022-12-05T15:45:15;25.55;;;9.10;;
39896;SDS011;25567;48.276;14.242;2022-12-05T15:47:50;25.67;;;8.20;;
39896;SDS011;25567;48.276;14.242;2022-12-05T15:50:21;24.33;;;8.13;;
39896;SDS011;25567;48.276;14.242;2022-12-05T15:55:25;24.65;;;8.52;;
39896;SDS011;25567;48.276;14.242;2022-12-05T15:58:04;25.17;;;8.50;;
39896;SDS011;25567;48.276;14.242;2022-12-05T16:00:39;25.15;;;9.48;;
39896;SDS011;25567;48.276;14.242;2022-12-05T16:03:12;24.52;;;9.20;;
39896;SDS011;25567;48.276;14.242;2022-12-05T16:05:47;24.35;;;9.05;;
39896;SDS011;25567;48.276;14.242;2022-12-05T16:08:22;25.45;;;8.63;;
39896;SDS011;25567;48.276;14.242;2022-12-05T16:10:50;21.60;;;7.90;;
39896;SDS011;25567;48.276;14.242;2022-12-05T16:13:18;26.55;;;9.50;;
39896;SDS011;25567;48.276;14.242;2022-12-05T16:15:50;22.05;;;9.25;;
39896;SDS011;25567;48.276;14.242;2022-12-05T16:18:22;36.88;;;10.98;;
39896;SDS011;25567;48.276;14.242;2022-12-05T16:20:52;23.98;;;9.23;;
39896;SDS011;25567;48.276;14.242;2022-12-05T16:23:24;25.05;;;9.40;;
39896;SDS011;25567;48.276;14.242;2022-12-05T16:28:37;23.13;;;7.90;;
39896;SDS011;25567;48.276;14.242;2022-12-05T16:31:04;25.00;;;9.20;;
39896;SDS011;25567;48.276;14.242;2022-12-05T16:33:32;21.80;;;8.45;;
39896;SDS011;25567;48.276;14.242;2022-12-05T16:36:11;29.52;;;9.25;;
39896;SDS011;25567;48.276;14.242;2022-12-05T16:38:38;27.77;;;9.38;;
39896;SDS011;25567;48.276;14.242;2022-12-05T16:41:15;23.35;;;9.25;;
39896;SDS011;25567;48.276;14.242;2022-12-05T16:43:43;23.50;;;8.65;;
39896;SDS011;25567;48.276;14.242;2022-12-05T16:48:40;23.10;;;8.88;;
39896;SDS011;25567;48.276;14.242;2022-12-05T16:53:36;22.60;;;8.73;;
39896;SDS011;25567;48.276;14.242;2022-12-05T16:56:04;25.10;;;9.35;;
39896;SDS011;25567;48.276;14.242;2022-12-05T16:58:35;25.60;;;9.15;;
39896;SDS011;25567;48.276;14.242;2022-12-05T17:01:03;23.58;;;9.20;;
39896;SDS011;25567;48.276;14.242;2022-12-05T17:03:32;22.35;;;8.85;;
39896;SDS011;25567;48.276;14.242;2022-12-05T17:06:01;23.05;;;9.20;;
39896;SDS011;25567;48.276;14.242;2022-12-05T17:08:28;26.95;;;10.20;;
39896;SDS011;25567;48.276;14.242;2022-12-05T17:10:55;23.98;;;9.82;;
39896;SDS011;25567;48.276;14.242;2022-12-05T17:13:23;26.98;;;9.70;;
39896;SDS011;25567;48.276;14.242;2022-12-05T17:15:50;27.80;;;10.10;;
39896;SDS011;25567;48.276;14.242;2022-12-05T17:18:18;23.35;;;9.38;;
39896;SDS011;25567;48.276;14.242;2022-12-05T17:20:54;24.15;;;9.77;;